createdAt,value
2023-01-02T00:00:03.612Z,1004.55
2023-01-02T00:01:03.412Z,1004.54
2023-01-02T00:02:02.382Z,1004.57
2023-01-02T00:03:02.975Z,1004.49
2023-01-02T00:04:03.239Z,1004.54
2023-01-02T00:05:02.789Z,1004.60
2023-01-02T00:06:02.459Z,1004.62
2023-01-02T00:07:02.681Z,1004.62
2023-01-02T00:08:03.013Z,1004.63
2023-01-02T00:09:02.456Z,1004.58
2023-01-02T00:10:02.667Z,1004.60
2023-01-02T00:11:02.811Z,1004.67
2023-01-02T00:12:03.163Z,1004.62
2023-01-02T00:13:02.896Z,1004.60
2023-01-02T00:14:03.049Z,1004.62
2023-01-02T00:15:03.234Z,1004.54
2023-01-02T00:16:02.945Z,1004.57
2023-01-02T00:17:03.239Z,1004.54
2023-01-02T00:18:03.645Z,1004.57
2023-01-02T00:19:03.531Z,1004.50
2023-01-02T00:20:03.355Z,1004.45
2023-01-02T00:21:03.446Z,1004.48
2023-01-02T00:22:02.696Z,1004.52
2023-01-02T00:23:03.120Z,1004.45
2023-01-02T00:24:02.809Z,1004.41
2023-01-02T00:25:02.719Z,1004.37
2023-01-02T00:26:03.805Z,1004.35
2023-01-02T00:27:03.193Z,1004.39
2023-01-02T00:28:02.959Z,1004.45
2023-01-02T00:29:03.078Z,1004.40
2023-01-02T00:30:03.382Z,1004.39
2023-01-02T00:31:02.794Z,1004.34
2023-01-02T00:32:03.619Z,1004.36
2023-01-02T00:33:03.578Z,1004.37
2023-01-02T00:34:03.412Z,1004.39
2023-01-02T00:35:03.369Z,1004.40
2023-01-02T00:36:03.264Z,1004.35
2023-01-02T00:37:03.249Z,1004.43
2023-01-02T00:38:03.635Z,1004.40
2023-01-02T00:39:03.331Z,1004.41
2023-01-02T00:40:03.329Z,1004.36
2023-01-02T00:41:03.157Z,1004.40
2023-01-02T00:42:02.634Z,1004.36
2023-01-02T00:43:02.686Z,1004.47
2023-01-02T00:44:02.834Z,1004.41
2023-01-02T00:45:02.912Z,1004.38
2023-01-02T00:46:07.789Z,1004.32
2023-01-02T00:47:03.292Z,1004.40
2023-01-02T00:48:03.345Z,1004.39
2023-01-02T00:49:03.523Z,1004.38
2023-01-02T00:50:03.258Z,1004.38
2023-01-02T00:51:04.081Z,1004.37
2023-01-02T00:52:03.172Z,1004.42
2023-01-02T00:53:03.279Z,1004.39
2023-01-02T00:54:02.888Z,1004.30
2023-01-02T00:55:02.811Z,1004.26
2023-01-02T00:56:02.831Z,1004.27
2023-01-02T00:57:03.402Z,1004.29
2023-01-02T00:58:03.179Z,1004.25
2023-01-02T00:59:03.492Z,1004.19
2023-01-02T01:00:03.704Z,1004.15
2023-01-02T01:01:03.466Z,1004.13
2023-01-02T01:02:01.885Z,1004.20
2023-01-02T01:03:02.391Z,1004.20
2023-01-02T01:04:01.964Z,1004.22
2023-01-02T01:05:02.319Z,1004.22
2023-01-02T01:06:02.114Z,1004.19
2023-01-02T01:07:02.442Z,1004.17
2023-01-02T01:08:02.613Z,1004.14
2023-01-02T01:09:02.833Z,1004.11
2023-01-02T01:10:02.724Z,1004.16
2023-01-02T01:11:02.942Z,1004.17
2023-01-02T01:12:04.903Z,1004.22
2023-01-02T01:13:02.172Z,1004.23
2023-01-02T01:14:02.595Z,1004.24
2023-01-02T01:15:02.459Z,1004.22
2023-01-02T01:16:02.139Z,1004.20
2023-01-02T01:17:02.305Z,1004.19
2023-01-02T01:18:01.638Z,1004.18
2023-01-02T01:19:02.221Z,1004.20
2023-01-02T01:20:02.446Z,1004.16
2023-01-02T01:21:02.349Z,1004.14
2023-01-02T01:22:02.362Z,1004.17
2023-01-02T01:23:02.375Z,1004.14
2023-01-02T01:24:01.819Z,1004.18
2023-01-02T01:25:02.081Z,1004.19
2023-01-02T01:26:02.083Z,1004.19
2023-01-02T01:27:02.767Z,1004.21
2023-01-02T01:28:02.360Z,1004.14
2023-01-02T01:29:02.446Z,1004.20
2023-01-02T01:30:02.744Z,1004.21
2023-01-02T01:31:02.425Z,1004.23
2023-01-02T01:32:02.322Z,1004.16
2023-01-02T01:33:01.680Z,1004.25
2023-01-02T01:34:01.987Z,1004.29
2023-01-02T01:35:01.577Z,1004.24
2023-01-02T01:36:01.975Z,1004.29
2023-01-02T01:37:02.446Z,1004.27
2023-01-02T01:38:02.454Z,1004.32
2023-01-02T01:39:02.034Z,1004.30
2023-01-02T01:40:02.305Z,1004.28
2023-01-02T01:41:02.023Z,1004.33
2023-01-02T01:42:02.809Z,1004.38
2023-01-02T01:43:02.418Z,1004.43
2023-01-02T01:44:02.195Z,1004.39
2023-01-02T01:45:02.385Z,1004.43
2023-01-02T01:46:02.542Z,1004.38
2023-01-02T01:47:01.930Z,1004.33
2023-01-02T01:48:01.990Z,1004.35
2023-01-02T01:49:02.200Z,1004.36
2023-01-02T01:50:05.549Z,1004.35
2023-01-02T01:51:01.908Z,1004.38
2023-01-02T01:52:02.594Z,1004.43
2023-01-02T01:53:02.058Z,1004.40
2023-01-02T01:54:02.544Z,1004.37
2023-01-02T01:55:02.541Z,1004.45
2023-01-02T01:56:02.565Z,1004.44
2023-01-02T01:57:03.025Z,1004.41
2023-01-02T01:58:02.821Z,1004.44
2023-01-02T01:59:02.799Z,1004.45
2023-01-02T02:00:02.390Z,1004.45
2023-01-02T02:01:02.983Z,1004.42
2023-01-02T02:02:03.807Z,1004.41
2023-01-02T02:03:03.125Z,1004.41
2023-01-02T02:04:03.694Z,1004.38
2023-01-02T02:05:03.489Z,1004.37
2023-01-02T02:06:03.127Z,1004.37
2023-01-02T02:07:03.785Z,1004.44
2023-01-02T02:08:03.681Z,1004.41
2023-01-02T02:09:03.331Z,1004.37
2023-01-02T02:10:03.697Z,1004.35
2023-01-02T02:11:03.476Z,1004.37
2023-01-02T02:12:02.942Z,1004.27
2023-01-02T02:13:02.464Z,1004.32
2023-01-02T02:14:02.945Z,1004.38
2023-01-02T02:15:03.006Z,1004.40
2023-01-02T02:16:02.657Z,1004.38
2023-01-02T02:17:03.326Z,1004.31
2023-01-02T02:18:03.390Z,1004.35
2023-01-02T02:19:03.340Z,1004.39
2023-01-02T02:20:03.861Z,1004.34
2023-01-02T02:21:03.564Z,1004.36
2023-01-02T02:22:02.218Z,1004.36
2023-01-02T02:23:02.568Z,1004.31
2023-01-02T02:24:02.347Z,1004.32
2023-01-02T02:25:02.738Z,1004.37
2023-01-02T02:26:02.741Z,1004.32
2023-01-02T02:27:02.966Z,1004.39
2023-01-02T02:28:02.728Z,1004.34
2023-01-02T02:29:02.786Z,1004.39
2023-01-02T02:30:03.340Z,1004.33
2023-01-02T02:31:02.892Z,1004.35
2023-01-02T02:32:03.695Z,1004.41
2023-01-02T02:33:03.532Z,1004.38
2023-01-02T02:34:03.453Z,1004.43
2023-01-02T02:35:03.204Z,1004.42
2023-01-02T02:36:03.354Z,1004.43
2023-01-02T02:37:02.423Z,1004.42
2023-01-02T02:38:02.681Z,1004.38
2023-01-02T02:39:02.825Z,1004.35
2023-01-02T02:40:02.499Z,1004.33
2023-01-02T02:41:02.666Z,1004.37
2023-01-02T02:42:02.375Z,1004.34
2023-01-02T02:43:02.767Z,1004.43
2023-01-02T02:44:02.694Z,1004.38
2023-01-02T02:45:02.563Z,1004.22
2023-01-02T02:46:02.870Z,1004.24
2023-01-02T02:47:02.831Z,1004.19
2023-01-02T02:48:03.275Z,1004.23
2023-01-02T02:49:03.071Z,1004.24
2023-01-02T02:50:03.313Z,1004.22
2023-01-02T02:51:02.993Z,1004.16
2023-01-02T02:52:02.912Z,1004.16
2023-01-02T02:53:03.288Z,1004.15
2023-01-02T02:54:03.130Z,1004.21
2023-01-02T02:55:03.080Z,1004.21
2023-01-02T02:56:03.315Z,1004.19
2023-01-02T02:57:03.047Z,1004.24
2023-01-02T02:58:03.149Z,1004.22
2023-01-02T02:59:03.430Z,1004.23
2023-01-02T03:00:03.573Z,1004.17
2023-01-02T03:01:03.429Z,1004.19
2023-01-02T03:02:03.450Z,1004.22
2023-01-02T03:03:03.236Z,1004.20
2023-01-02T03:04:03.286Z,1004.27
2023-01-02T03:05:03.734Z,1004.28
2023-01-02T03:06:03.576Z,1004.29
2023-01-02T03:07:02.672Z,1004.32
2023-01-02T03:08:02.686Z,1004.26
2023-01-02T03:09:02.994Z,1004.25
2023-01-02T03:10:02.617Z,1004.23
2023-01-02T03:11:02.757Z,1004.24
2023-01-02T03:12:03.427Z,1004.24
2023-01-02T03:13:03.277Z,1004.24
2023-01-02T03:14:03.099Z,1004.26
2023-01-02T03:15:03.353Z,1004.20
2023-01-02T03:16:03.389Z,1004.24
2023-01-02T03:17:03.611Z,1004.20
2023-01-02T03:18:03.248Z,1004.24
2023-01-02T03:19:03.686Z,1004.20
2023-01-02T03:20:03.880Z,1004.13
2023-01-02T03:21:03.381Z,1004.19
2023-01-02T03:22:03.074Z,1004.20
2023-01-02T03:23:02.908Z,1004.19
2023-01-02T03:24:03.146Z,1004.24
2023-01-02T03:25:02.932Z,1004.30
2023-01-02T03:26:02.778Z,1004.24
2023-01-02T03:27:03.651Z,1004.23
2023-01-02T03:28:03.236Z,1004.21
2023-01-02T03:29:03.495Z,1004.25
2023-01-02T03:30:03.373Z,1004.22
2023-01-02T03:31:03.090Z,1004.21
2023-01-02T03:32:03.012Z,1004.25
2023-01-02T03:33:03.425Z,1004.22
2023-01-02T03:34:03.069Z,1004.23
2023-01-02T03:35:02.768Z,1004.24
2023-01-02T03:36:03.133Z,1004.25
2023-01-02T03:37:03.119Z,1004.23
2023-01-02T03:38:03.280Z,1004.24
2023-01-02T03:39:03.465Z,1004.17
2023-01-02T03:40:03.667Z,1004.21
2023-01-02T03:41:03.476Z,1004.22
2023-01-02T03:42:02.796Z,1004.26
2023-01-02T03:43:02.708Z,1004.27
2023-01-02T03:44:02.493Z,1004.30
2023-01-02T03:45:02.557Z,1004.38
2023-01-02T03:46:02.745Z,1004.40
2023-01-02T03:47:03.536Z,1004.40
2023-01-02T03:48:03.524Z,1004.42
2023-01-02T03:49:03.520Z,1004.43
2023-01-02T03:50:03.293Z,1004.43
2023-01-02T03:51:03.048Z,1004.45
2023-01-02T03:52:02.634Z,1004.43
2023-01-02T03:53:02.612Z,1004.51
2023-01-02T03:54:03.146Z,1004.55
2023-01-02T03:55:03.063Z,1004.51
2023-01-02T03:56:03.255Z,1004.49
2023-01-02T03:57:03.521Z,1004.41
2023-01-02T03:58:03.244Z,1004.41
2023-01-02T03:59:03.544Z,1004.42
2023-01-02T04:00:03.132Z,1004.47
2023-01-02T04:01:03.653Z,1004.50
2023-01-02T04:02:02.737Z,1004.51
2023-01-02T04:03:02.696Z,1004.56
2023-01-02T04:04:03.087Z,1004.52
2023-01-02T04:05:02.895Z,1004.51
2023-01-02T04:06:02.824Z,1004.45
2023-01-02T04:07:03.265Z,1004.45
2023-01-02T04:08:03.190Z,1004.43
2023-01-02T04:09:02.784Z,1004.39
2023-01-02T04:10:02.644Z,1004.34
2023-01-02T04:11:03.005Z,1004.37
2023-01-02T04:12:02.328Z,1004.42
2023-01-02T04:13:02.620Z,1004.40
2023-01-02T04:14:02.304Z,1004.35
2023-01-02T04:15:02.714Z,1004.32
2023-01-02T04:16:02.775Z,1004.30
2023-01-02T04:17:02.715Z,1004.35
2023-01-02T04:18:02.681Z,1004.37
2023-01-02T04:19:02.377Z,1004.36
2023-01-02T04:20:02.780Z,1004.40
2023-01-02T04:21:02.512Z,1004.39
2023-01-02T04:22:03.411Z,1004.39
2023-01-02T04:23:03.403Z,1004.39
2023-01-02T04:24:03.296Z,1004.41
2023-01-02T04:25:03.284Z,1004.39
2023-01-02T04:26:03.072Z,1004.41
2023-01-02T04:27:02.400Z,1004.44
2023-01-02T04:28:02.619Z,1004.44
2023-01-02T04:29:02.682Z,1004.45
2023-01-02T04:30:03.067Z,1004.39
2023-01-02T04:31:02.902Z,1004.38
2023-01-02T04:32:02.442Z,1004.40
2023-01-02T04:33:03.046Z,1004.41
2023-01-02T04:34:02.748Z,1004.41
2023-01-02T04:35:02.717Z,1004.44
2023-01-02T04:36:02.991Z,1004.49
2023-01-02T04:37:03.439Z,1004.52
2023-01-02T04:38:02.925Z,1004.45
2023-01-02T04:39:03.429Z,1004.50
2023-01-02T04:40:03.602Z,1004.48
2023-01-02T04:41:03.119Z,1004.51
2023-01-02T04:42:02.307Z,1004.53
2023-01-02T04:43:02.623Z,1004.55
2023-01-02T04:44:02.513Z,1004.55
2023-01-02T04:45:02.580Z,1004.51
2023-01-02T04:46:02.594Z,1004.60
2023-01-02T04:47:02.589Z,1004.57
2023-01-02T04:48:02.772Z,1004.59
2023-01-02T04:49:02.734Z,1004.59
2023-01-02T04:50:02.560Z,1004.63
2023-01-02T04:51:03.058Z,1004.58
2023-01-02T04:52:02.982Z,1004.58
2023-01-02T04:53:02.970Z,1004.66
2023-01-02T04:54:02.932Z,1004.69
2023-01-02T04:55:03.214Z,1004.64
2023-01-02T04:56:03.183Z,1004.57
2023-01-02T04:57:02.175Z,1004.64
2023-01-02T04:58:02.507Z,1004.58
2023-01-02T04:59:02.611Z,1004.59
2023-01-02T05:00:02.199Z,1004.59
2023-01-02T05:01:02.540Z,1004.61
2023-01-02T05:02:03.110Z,1004.56
2023-01-02T05:03:03.538Z,1004.67
2023-01-02T05:04:03.035Z,1004.70
2023-01-02T05:05:03.163Z,1004.75
2023-01-02T05:06:03.231Z,1004.77
2023-01-02T05:07:02.521Z,1004.77
2023-01-02T05:08:02.477Z,1004.79
2023-01-02T05:09:02.063Z,1004.73
2023-01-02T05:10:02.140Z,1004.78
2023-01-02T05:11:02.240Z,1004.74
2023-01-02T05:12:02.378Z,1004.72
2023-01-02T05:13:02.297Z,1004.71
2023-01-02T05:14:07.209Z,1004.77
2023-01-02T05:15:02.867Z,1004.73
2023-01-02T05:16:02.348Z,1004.72
2023-01-02T05:17:02.781Z,1004.75
2023-01-02T05:18:02.395Z,1004.81
2023-01-02T05:19:02.597Z,1004.81
2023-01-02T05:20:02.466Z,1004.77
2023-01-02T05:21:02.538Z,1004.86
2023-01-02T05:22:02.756Z,1004.79
2023-01-02T05:23:03.040Z,1004.81
2023-01-02T05:24:03.127Z,1004.84
2023-01-02T05:25:02.703Z,1004.84
2023-01-02T05:26:03.289Z,1004.83
2023-01-02T05:27:03.142Z,1004.86
2023-01-02T05:28:02.723Z,1004.83
2023-01-02T05:29:03.306Z,1004.87
2023-01-02T05:30:03.374Z,1004.88
2023-01-02T05:31:02.900Z,1004.84
2023-01-02T05:32:02.440Z,1004.85
2023-01-02T05:33:02.091Z,1004.84
2023-01-02T05:34:02.688Z,1004.85
2023-01-02T05:35:02.243Z,1004.85
2023-01-02T05:36:02.852Z,1004.85
2023-01-02T05:37:03.098Z,1004.91
2023-01-02T05:38:03.107Z,1004.97
2023-01-02T05:39:03.353Z,1005.03
2023-01-02T05:40:02.845Z,1005.07
2023-01-02T05:41:02.998Z,1005.03
2023-01-02T05:42:02.516Z,1005.03
2023-01-02T05:43:02.361Z,1004.99
2023-01-02T05:44:02.268Z,1004.91
2023-01-02T05:45:02.409Z,1004.96
2023-01-02T05:46:02.300Z,1005.01
2023-01-02T05:47:02.318Z,1005.05
2023-01-02T05:48:02.570Z,1005.01
2023-01-02T05:49:02.901Z,1005.02
2023-01-02T05:50:02.560Z,1004.99
2023-01-02T05:51:02.521Z,1004.96
2023-01-02T05:52:02.642Z,1004.94
2023-01-02T05:53:02.516Z,1004.98
2023-01-02T05:54:03.072Z,1004.97
2023-01-02T05:55:02.689Z,1004.95
2023-01-02T05:56:02.709Z,1005.01
2023-01-02T05:57:02.757Z,1004.99
2023-01-02T05:58:02.855Z,1005.05
2023-01-02T05:59:03.279Z,1004.98
2023-01-02T06:00:02.706Z,1005.00
2023-01-02T06:01:02.963Z,1005.03
2023-01-02T06:02:02.632Z,1005.09
2023-01-02T06:03:02.922Z,1005.02
2023-01-02T06:04:02.489Z,1005.06
2023-01-02T06:05:02.627Z,1005.09
2023-01-02T06:06:02.769Z,1005.13
2023-01-02T06:07:02.859Z,1005.22
2023-01-02T06:08:03.232Z,1005.16
2023-01-02T06:09:02.717Z,1005.21
2023-01-02T06:10:03.192Z,1005.20
2023-01-02T06:11:02.988Z,1005.22
2023-01-02T06:12:02.943Z,1005.21
2023-01-02T06:13:03.205Z,1005.25
2023-01-02T06:14:03.308Z,1005.26
2023-01-02T06:15:03.155Z,1005.22
2023-01-02T06:16:03.462Z,1005.28
2023-01-02T06:17:02.778Z,1005.20
2023-01-02T06:18:02.490Z,1005.22
2023-01-02T06:19:02.216Z,1005.13
2023-01-02T06:20:02.129Z,1005.05
2023-01-02T06:21:02.746Z,1005.02
2023-01-02T06:22:02.890Z,1005.09
2023-01-02T06:23:02.829Z,1005.08
2023-01-02T06:24:02.710Z,1005.10
2023-01-02T06:25:02.428Z,1005.08
2023-01-02T06:26:02.882Z,1005.07
2023-01-02T06:27:02.953Z,1005.11
2023-01-02T06:28:02.858Z,1005.10
2023-01-02T06:29:02.841Z,1005.08
2023-01-02T06:30:02.806Z,1005.10
2023-01-02T06:31:03.116Z,1005.12
2023-01-02T06:32:03.187Z,1005.12
2023-01-02T06:33:03.084Z,1005.21
2023-01-02T06:34:03.473Z,1005.24
2023-01-02T06:35:02.989Z,1005.25
2023-01-02T06:36:03.212Z,1005.30
2023-01-02T06:37:09.536Z,1005.26
2023-01-02T06:38:03.493Z,1005.26
2023-01-02T06:39:03.290Z,1005.17
2023-01-02T06:40:03.303Z,1005.17
2023-01-02T06:41:03.313Z,1005.21
2023-01-02T06:42:03.047Z,1005.23
2023-01-02T06:43:03.036Z,1005.17
2023-01-02T06:44:02.757Z,1005.20
2023-01-02T06:45:03.062Z,1005.13
2023-01-02T06:46:02.594Z,1005.16
2023-01-02T06:47:03.015Z,1005.12
2023-01-02T06:48:03.561Z,1005.11
2023-01-02T06:49:03.169Z,1005.13
2023-01-02T06:50:03.453Z,1005.15
2023-01-02T06:51:03.230Z,1005.16
2023-01-02T06:52:02.883Z,1005.17
2023-01-02T06:53:02.666Z,1005.18
2023-01-02T06:54:02.347Z,1005.16
2023-01-02T06:55:02.883Z,1005.19
2023-01-02T06:56:02.653Z,1005.19
2023-01-02T06:57:02.925Z,1005.19
2023-01-02T06:58:09.230Z,1005.23
2023-01-02T06:59:03.156Z,1005.21
2023-01-02T07:00:02.977Z,1005.19
2023-01-02T07:01:02.934Z,1005.16
2023-01-02T07:02:02.102Z,1005.18
2023-01-02T07:03:02.120Z,1005.17
2023-01-02T07:04:02.175Z,1005.16
2023-01-02T07:05:02.513Z,1005.17
2023-01-02T07:06:02.633Z,1005.23
2023-01-02T07:07:02.756Z,1005.23
2023-01-02T07:08:02.830Z,1005.25
2023-01-02T07:09:02.338Z,1005.30
2023-01-02T07:10:02.332Z,1005.34
2023-01-02T07:11:02.354Z,1005.35
2023-01-02T07:12:02.392Z,1005.35
2023-01-02T07:13:02.680Z,1005.38
2023-01-02T07:14:02.908Z,1005.49
2023-01-02T07:15:02.582Z,1005.43
2023-01-02T07:16:02.594Z,1005.46
2023-01-02T07:17:02.860Z,1005.42
2023-01-02T07:18:02.854Z,1005.43
2023-01-02T07:19:03.051Z,1005.46
2023-01-02T07:20:02.890Z,1005.44
2023-01-02T07:21:03.497Z,1005.44
2023-01-02T07:22:02.282Z,1005.44
2023-01-02T07:23:02.461Z,1005.47
2023-01-02T07:24:02.289Z,1005.43
2023-01-02T07:25:02.171Z,1005.42
2023-01-02T07:26:02.021Z,1005.43
2023-01-02T07:27:02.308Z,1005.44
2023-01-02T07:28:02.141Z,1005.47
2023-01-02T07:29:02.460Z,1005.42
2023-01-02T07:30:02.063Z,1005.42
2023-01-02T07:31:01.827Z,1005.40
2023-01-02T07:32:02.964Z,1005.41
2023-01-02T07:33:02.467Z,1005.41
2023-01-02T07:34:02.873Z,1005.40
2023-01-02T07:35:03.086Z,1005.40
2023-01-02T07:36:02.962Z,1005.39
2023-01-02T07:37:02.874Z,1005.50
2023-01-02T07:38:03.461Z,1005.53
2023-01-02T07:39:03.032Z,1005.52
2023-01-02T07:40:02.951Z,1005.48
2023-01-02T07:41:03.125Z,1005.45
2023-01-02T07:42:03.231Z,1005.49
2023-01-02T07:43:03.029Z,1005.54
2023-01-02T07:44:03.284Z,1005.57
2023-01-02T07:45:02.856Z,1005.66
2023-01-02T07:46:03.401Z,1005.65
2023-01-02T07:47:02.925Z,1005.65
2023-01-02T07:48:02.884Z,1005.69
2023-01-02T07:49:02.462Z,1005.61
2023-01-02T07:50:02.959Z,1005.64
2023-01-02T07:51:02.602Z,1005.68
2023-01-02T07:52:03.101Z,1005.67
2023-01-02T07:53:02.985Z,1005.63
2023-01-02T07:54:03.129Z,1005.56
2023-01-02T07:55:02.912Z,1005.62
2023-01-02T07:56:02.898Z,1005.61
2023-01-02T07:57:02.676Z,1005.59
2023-01-02T07:58:02.189Z,1005.63
2023-01-02T07:59:02.650Z,1005.60
2023-01-02T08:00:02.139Z,1005.56
2023-01-02T08:01:05.696Z,1005.65
2023-01-02T08:02:03.305Z,1005.61
2023-01-02T08:03:02.667Z,1005.54
2023-01-02T08:04:03.235Z,1005.68
2023-01-02T08:05:03.005Z,1005.71
2023-01-02T08:06:03.188Z,1005.67
2023-01-02T08:07:02.475Z,1005.65
2023-01-02T08:08:02.444Z,1005.80
2023-01-02T08:09:02.562Z,1005.72
2023-01-02T08:10:02.806Z,1005.79
2023-01-02T08:11:02.471Z,1005.81
2023-01-02T08:12:02.789Z,1005.84
2023-01-02T08:13:02.731Z,1005.83
2023-01-02T08:14:02.989Z,1005.81
2023-01-02T08:15:03.303Z,1005.83
2023-01-02T08:16:02.847Z,1005.81
2023-01-02T08:17:03.117Z,1005.81
2023-01-02T08:18:03.319Z,1005.92
2023-01-02T08:19:03.010Z,1005.99
2023-01-02T08:20:07.963Z,1005.92
2023-01-02T08:21:03.094Z,1005.94
2023-01-02T08:22:01.955Z,1005.94
2023-01-02T08:23:02.148Z,1005.98
2023-01-02T08:24:02.060Z,1006.02
2023-01-02T08:25:02.324Z,1005.98
2023-01-02T08:26:01.929Z,1006.04
2023-01-02T08:27:02.098Z,1005.99
2023-01-02T08:28:02.429Z,1005.99
2023-01-02T08:29:02.121Z,1006.03
2023-01-02T08:30:02.692Z,1006.02
2023-01-02T08:31:02.439Z,1006.03
2023-01-02T08:32:02.838Z,1006.06
2023-01-02T08:33:03.226Z,1006.11
2023-01-02T08:34:03.303Z,1006.15
2023-01-02T08:35:02.984Z,1006.17
2023-01-02T08:36:03.323Z,1006.11
2023-01-02T08:37:02.439Z,1006.18
2023-01-02T08:38:03.040Z,1006.31
2023-01-02T08:39:02.778Z,1006.35
2023-01-02T08:40:02.598Z,1006.19
2023-01-02T08:41:02.900Z,1006.27
2023-01-02T08:42:03.326Z,1006.34
2023-01-02T08:43:03.270Z,1006.30
2023-01-02T08:44:03.127Z,1006.31
2023-01-02T08:45:02.983Z,1006.34
2023-01-02T08:46:02.763Z,1006.33
2023-01-02T08:47:02.471Z,1006.36
2023-01-02T08:48:20.569Z,1006.38
2023-01-02T08:49:02.797Z,1006.39
2023-01-02T08:50:02.265Z,1006.38
2023-01-02T08:51:02.250Z,1006.38
2023-01-02T08:52:02.922Z,1006.49
2023-01-02T08:53:04.715Z,1006.49
2023-01-02T08:54:02.885Z,1006.50
2023-01-02T08:55:02.619Z,1006.54
2023-01-02T08:56:02.843Z,1006.54
2023-01-02T08:57:02.873Z,1006.56
2023-01-02T08:58:02.927Z,1006.52
2023-01-02T08:59:03.047Z,1006.49
2023-01-02T09:00:03.160Z,1006.55
2023-01-02T09:01:03.229Z,1006.58
2023-01-02T09:02:02.681Z,1006.58
2023-01-02T09:03:02.648Z,1006.67
2023-01-02T09:04:11.142Z,1006.60
2023-01-02T09:05:02.412Z,1006.68
2023-01-02T09:06:02.524Z,1006.61
2023-01-02T09:07:02.614Z,1006.65
2023-01-02T09:08:02.672Z,1006.61
2023-01-02T09:09:09.226Z,1006.62
2023-01-02T09:10:03.091Z,1006.68
2023-01-02T09:11:02.773Z,1006.64
2023-01-02T09:12:03.006Z,1006.69
2023-01-02T09:13:02.703Z,1006.70
2023-01-02T09:14:02.744Z,1006.73
2023-01-02T09:15:02.774Z,1006.75
2023-01-02T09:16:02.698Z,1006.70
2023-01-02T09:17:03.234Z,1006.83
2023-01-02T09:18:03.277Z,1006.87
2023-01-02T09:19:03.300Z,1006.87
2023-01-02T09:20:03.236Z,1006.89
2023-01-02T09:21:03.289Z,1006.87
2023-01-02T09:22:02.533Z,1006.94
2023-01-02T09:23:02.551Z,1006.96
2023-01-02T09:24:02.340Z,1007.00
2023-01-02T09:25:02.800Z,1007.05
2023-01-02T09:26:02.653Z,1007.08
2023-01-02T09:27:02.617Z,1007.09
2023-01-02T09:28:02.906Z,1007.14
2023-01-02T09:29:03.064Z,1007.31
2023-01-02T09:30:02.459Z,1007.38
2023-01-02T09:31:06.060Z,1007.48
2023-01-02T09:32:02.377Z,1007.51
2023-01-02T09:33:02.585Z,1007.52
2023-01-02T09:34:02.204Z,1007.65
2023-01-02T09:35:02.664Z,1007.57
2023-01-02T09:36:02.214Z,1007.62
2023-01-02T09:37:02.844Z,1007.57
2023-01-02T09:38:02.904Z,1007.62
2023-01-02T09:39:02.811Z,1007.67
2023-01-02T09:40:02.658Z,1007.66
2023-01-02T09:41:02.634Z,1007.69
2023-01-02T09:42:02.444Z,1007.68
2023-01-02T09:43:02.459Z,1007.69
2023-01-02T09:44:02.580Z,1007.66
2023-01-02T09:45:08.136Z,1007.71
2023-01-02T09:46:02.256Z,1007.70
2023-01-02T09:47:02.618Z,1007.78
2023-01-02T09:48:02.718Z,1007.79
2023-01-02T09:49:02.672Z,1007.78
2023-01-02T09:50:02.838Z,1007.83
2023-01-02T09:51:07.326Z,1007.87
2023-01-02T09:52:03.091Z,1007.88
2023-01-02T09:53:03.456Z,1007.91
2023-01-02T09:54:03.289Z,1007.97
2023-01-02T09:55:03.285Z,1007.86
2023-01-02T09:56:02.845Z,1007.98
2023-01-02T09:57:03.147Z,1008.02
2023-01-02T09:58:03.122Z,1007.99
2023-01-02T09:59:03.030Z,1008.01
2023-01-02T10:00:02.916Z,1008.04
2023-01-02T10:01:03.368Z,1008.06
2023-01-02T10:02:02.486Z,1008.10
2023-01-02T10:03:07.622Z,1008.15
2023-01-02T10:04:03.061Z,1008.17
2023-01-02T10:05:02.957Z,1008.10
2023-01-02T10:06:03.185Z,1008.17
2023-01-02T10:07:03.044Z,1008.15
2023-01-02T10:08:03.060Z,1008.09
2023-01-02T10:09:02.848Z,1008.12
2023-01-02T10:10:02.750Z,1008.14
2023-01-02T10:11:02.751Z,1008.14
2023-01-02T10:12:02.669Z,1008.16
2023-01-02T10:13:02.685Z,1008.19
2023-01-02T10:14:19.758Z,1008.19
2023-01-02T10:15:02.653Z,1008.20
2023-01-02T10:16:02.824Z,1008.18
2023-01-02T10:17:02.399Z,1008.19
2023-01-02T10:18:02.538Z,1008.19
2023-01-02T10:19:02.110Z,1008.16
2023-01-02T10:20:02.148Z,1008.19
2023-01-02T10:21:02.043Z,1008.18
2023-01-02T10:22:02.685Z,1008.13
2023-01-02T10:23:02.510Z,1008.17
2023-01-02T10:24:02.576Z,1008.12
2023-01-02T10:25:02.616Z,1008.12
2023-01-02T10:26:02.709Z,1008.11
2023-01-02T10:27:02.832Z,1008.07
2023-01-02T10:28:03.310Z,1008.04
2023-01-02T10:29:02.492Z,1008.06
2023-01-02T10:30:02.599Z,1008.06
2023-01-02T10:31:07.042Z,1008.06
2023-01-02T10:32:02.502Z,1008.05
2023-01-02T10:33:02.441Z,1008.06
2023-01-02T10:34:02.415Z,1008.02
2023-01-02T10:35:02.530Z,1008.02
2023-01-02T10:36:02.300Z,1007.98
2023-01-02T10:37:07.804Z,1007.99
2023-01-02T10:38:03.054Z,1007.96
2023-01-02T10:39:02.828Z,1007.98
2023-01-02T10:40:02.908Z,1007.98
2023-01-02T10:41:02.957Z,1008.02
2023-01-02T10:42:02.770Z,1008.06
2023-01-02T10:43:02.501Z,1008.06
2023-01-02T10:44:02.294Z,1008.07
2023-01-02T10:45:02.265Z,1008.06
2023-01-02T10:46:02.193Z,1008.07
2023-01-02T10:47:02.902Z,1008.09
2023-01-02T10:48:02.962Z,1008.14
2023-01-02T10:49:02.939Z,1008.16
2023-01-02T10:50:02.708Z,1008.16
2023-01-02T10:51:02.549Z,1008.15
2023-01-02T10:52:03.277Z,1008.14
2023-01-02T10:53:03.325Z,1008.17
2023-01-02T10:54:03.161Z,1008.23
2023-01-02T10:55:03.266Z,1008.23
2023-01-02T10:56:03.060Z,1008.27
2023-01-02T10:57:02.787Z,1008.29
2023-01-02T10:58:02.552Z,1008.28
2023-01-02T10:59:02.563Z,1008.33
2023-01-02T11:00:02.569Z,1008.30
2023-01-02T11:01:02.753Z,1008.32
2023-01-02T11:02:03.294Z,1008.31
2023-01-02T11:03:03.152Z,1008.31
2023-01-02T11:04:02.981Z,1008.28
2023-01-02T11:05:03.068Z,1008.30
2023-01-02T11:06:25.804Z,1008.29
2023-01-02T11:07:03.211Z,1008.28
2023-01-02T11:08:02.936Z,1008.30
2023-01-02T11:09:02.949Z,1008.25
2023-01-02T11:10:02.960Z,1008.19
2023-01-02T11:11:02.980Z,1008.22
2023-01-02T11:12:03.377Z,1008.19
2023-01-02T11:13:03.343Z,1008.21
2023-01-02T11:14:02.941Z,1008.20
2023-01-02T11:15:02.907Z,1008.25
2023-01-02T11:16:03.015Z,1008.26
2023-01-02T11:17:03.737Z,1008.23
2023-01-02T11:18:03.507Z,1008.17
2023-01-02T11:19:03.502Z,1008.16
2023-01-02T11:20:03.516Z,1008.19
2023-01-02T11:21:03.361Z,1008.20
2023-01-02T11:22:03.792Z,1008.21
2023-01-02T11:23:03.676Z,1008.22
2023-01-02T11:24:03.680Z,1008.20
2023-01-02T11:25:03.498Z,1008.20
2023-01-02T11:26:03.510Z,1008.13
2023-01-02T11:27:02.625Z,1008.09
2023-01-02T11:28:02.675Z,1008.14
2023-01-02T11:29:02.731Z,1008.09
2023-01-02T11:30:02.841Z,1008.13
2023-01-02T11:31:02.904Z,1008.17
2023-01-02T11:32:03.116Z,1008.15
2023-01-02T11:33:03.400Z,1008.15
2023-01-02T11:34:03.460Z,1008.13
2023-01-02T11:35:03.502Z,1008.15
2023-01-02T11:36:03.619Z,1008.14
2023-01-02T11:37:03.393Z,1008.18
2023-01-02T11:38:02.934Z,1008.18
2023-01-02T11:39:02.996Z,1008.14
2023-01-02T11:40:02.769Z,1008.19
2023-01-02T11:41:02.954Z,1008.14
2023-01-02T11:42:02.727Z,1008.17
2023-01-02T11:43:03.310Z,1008.15
2023-01-02T11:44:03.350Z,1008.17
2023-01-02T11:45:03.355Z,1008.21
2023-01-02T11:46:03.004Z,1008.24
2023-01-02T11:47:02.957Z,1008.24
2023-01-02T11:48:03.634Z,1008.21
2023-01-02T11:49:03.666Z,1008.22
2023-01-02T11:50:03.552Z,1008.20
2023-01-02T11:51:03.592Z,1008.22
2023-01-02T11:52:03.588Z,1008.24
2023-01-02T11:53:03.206Z,1008.26
2023-01-02T11:54:03.197Z,1008.27
2023-01-02T11:55:03.272Z,1008.26
2023-01-02T11:56:03.179Z,1008.28
2023-01-02T11:57:03.202Z,1008.27
2023-01-02T11:58:03.266Z,1008.25
2023-01-02T11:59:03.383Z,1008.22
2023-01-02T12:00:03.448Z,1008.20
2023-01-02T12:01:03.562Z,1008.15
2023-01-02T12:02:03.473Z,1008.08
2023-01-02T12:03:03.417Z,1008.09
2023-01-02T12:04:03.592Z,1008.10
2023-01-02T12:05:03.520Z,1008.07